createdAt,value
2023-01-19T00:01:25.031Z,91.21
2023-01-19T00:03:53.641Z,89.38
2023-01-19T00:06:22.149Z,89.92
2023-01-19T00:08:51.225Z,90.13
2023-01-19T00:11:20.645Z,89.84
2023-01-19T00:13:50.904Z,91.32
2023-01-19T00:16:22.890Z,91.75
2023-01-19T00:18:52.706Z,90.38
2023-01-19T00:21:22.371Z,91.13
2023-01-19T00:23:52.648Z,91.53
2023-01-19T00:26:23.065Z,91.96
2023-01-19T00:28:52.879Z,91.67
2023-01-19T00:31:22.776Z,92.22
2023-01-19T00:33:55.206Z,91.45
2023-01-19T00:36:23.716Z,92.02
2023-01-19T00:38:52.275Z,90.57
2023-01-19T00:41:41.396Z,89.64
2023-01-19T00:44:10.604Z,90.90
2023-01-19T00:46:40.629Z,89.21
2023-01-19T00:49:09.137Z,89.76
2023-01-19T00:51:38.156Z,90.10
2023-01-19T00:54:10.264Z,88.76
2023-01-19T00:56:39.254Z,90.03
2023-01-19T00:59:07.698Z,88.98
2023-01-19T01:01:45.615Z,90.64
2023-01-19T01:04:16.161Z,88.96
2023-01-19T01:06:44.817Z,89.15
2023-01-19T01:09:13.354Z,90.16
2023-01-19T01:11:43.010Z,89.50
2023-01-19T01:14:12.968Z,89.76
2023-01-19T01:16:42.988Z,89.60
2023-01-19T01:19:11.685Z,90.46
2023-01-19T01:21:41.674Z,90.46
2023-01-19T01:24:11.038Z,89.37
2023-01-19T01:26:39.662Z,89.08
2023-01-19T01:29:08.686Z,89.71
2023-01-19T01:31:37.378Z,90.29
2023-01-19T01:34:06.058Z,91.08
2023-01-19T01:36:35.484Z,90.41
2023-01-19T01:39:05.434Z,90.25
2023-01-19T01:41:33.947Z,91.64
2023-01-19T01:44:06.219Z,91.68
2023-01-19T01:46:34.781Z,91.39
2023-01-19T01:49:06.826Z,91.21
2023-01-19T01:51:40.146Z,91.25
2023-01-19T01:54:16.328Z,89.36
2023-01-19T01:56:47.525Z,90.01
2023-01-19T01:59:26.108Z,89.92
2023-01-19T02:02:14.204Z,88.68
2023-01-19T02:04:48.595Z,89.81
2023-01-19T02:07:40.863Z,91.43
2023-01-19T02:10:28.789Z,91.57
2023-01-19T02:13:16.092Z,92.26
2023-01-19T02:15:45.906Z,92.12
2023-01-19T02:18:15.090Z,92.13
2023-01-19T02:20:49.509Z,91.13
2023-01-19T02:23:24.916Z,90.47
2023-01-19T02:25:55.209Z,90.29
2023-01-19T02:28:25.370Z,89.85
2023-01-19T02:30:54.056Z,90.10
2023-01-19T02:33:22.900Z,90.10
2023-01-19T02:35:53.489Z,91.29
2023-01-19T02:38:22.218Z,90.48
2023-01-19T02:40:51.548Z,91.17
2023-01-19T02:43:21.611Z,89.94
2023-01-19T02:45:50.444Z,90.24
2023-01-19T02:48:21.553Z,89.49
2023-01-19T02:50:53.144Z,90.15
2023-01-19T02:53:47.911Z,90.85
2023-01-19T02:56:49.232Z,90.42
2023-01-19T02:59:31.317Z,92.01
2023-01-19T03:02:10.566Z,92.32
2023-01-19T03:04:56.384Z,91.58
2023-01-19T03:07:34.137Z,91.72
2023-01-19T03:10:08.424Z,91.66
2023-01-19T03:12:45.185Z,92.31
2023-01-19T03:15:20.612Z,91.61
2023-01-19T03:17:51.135Z,91.85
2023-01-19T03:20:21.977Z,91.44
2023-01-19T03:22:55.168Z,91.86
2023-01-19T03:25:26.173Z,91.63
2023-01-19T03:27:58.412Z,90.32
2023-01-19T03:30:32.423Z,91.06
2023-01-19T03:33:07.251Z,91.57
2023-01-19T03:35:41.079Z,91.70
2023-01-19T03:38:15.932Z,91.83
2023-01-19T03:40:47.406Z,90.60
2023-01-19T03:43:18.357Z,90.13
2023-01-19T03:45:48.595Z,90.80
2023-01-19T03:48:18.105Z,91.01
2023-01-19T03:50:46.615Z,90.60
2023-01-19T03:53:16.911Z,91.46
2023-01-19T03:55:48.326Z,90.68
2023-01-19T03:58:17.305Z,90.90
2023-01-19T04:00:45.819Z,91.17
2023-01-19T04:03:17.627Z,90.84
2023-01-19T04:05:46.419Z,91.01
2023-01-19T04:08:14.936Z,91.10
2023-01-19T04:10:43.513Z,90.40
2023-01-19T04:13:11.938Z,89.92
2023-01-19T04:15:40.675Z,89.80
2023-01-19T04:18:09.817Z,89.88
2023-01-19T04:20:39.670Z,90.68
2023-01-19T04:23:08.315Z,89.82
2023-01-19T04:25:38.890Z,90.69
2023-01-19T04:28:07.337Z,89.35
2023-01-19T04:30:35.884Z,90.05
2023-01-19T04:33:04.488Z,90.05
2023-01-19T04:35:34.269Z,89.73
2023-01-19T04:38:04.042Z,89.81
2023-01-19T04:40:32.480Z,89.01
2023-01-19T04:43:01.253Z,89.03
2023-01-19T04:45:30.013Z,90.11
2023-01-19T04:47:58.498Z,88.84
2023-01-19T04:50:27.151Z,89.80
2023-01-19T04:52:55.569Z,89.55
2023-01-19T04:55:25.887Z,88.95
2023-01-19T04:57:54.907Z,89.25
2023-01-19T05:00:23.612Z,88.79
2023-01-19T05:02:52.299Z,89.32
2023-01-19T05:05:20.753Z,89.40
2023-01-19T05:07:49.253Z,88.90
2023-01-19T05:10:18.146Z,89.13
2023-01-19T05:12:48.090Z,88.93
2023-01-19T05:15:16.676Z,88.49
2023-01-19T05:17:45.171Z,88.82
2023-01-19T05:20:16.358Z,88.07
2023-01-19T05:22:49.991Z,88.48
2023-01-19T05:25:19.105Z,88.22
2023-01-19T05:27:49.249Z,89.01
2023-01-19T05:30:19.184Z,88.50
2023-01-19T05:32:47.790Z,88.70
2023-01-19T05:35:20.130Z,89.47
2023-01-19T05:37:53.596Z,88.20
2023-01-19T05:40:22.498Z,88.64
2023-01-19T05:42:53.311Z,88.85
2023-01-19T05:45:21.970Z,88.02
2023-01-19T05:47:50.960Z,88.31
2023-01-19T05:50:20.186Z,88.36
2023-01-19T05:52:48.696Z,88.85
2023-01-19T05:55:17.486Z,87.87
2023-01-19T05:57:45.973Z,87.89
2023-01-19T06:00:17.060Z,88.28
2023-01-19T06:02:46.607Z,88.71
2023-01-19T06:05:15.546Z,87.79
2023-01-19T06:07:44.033Z,88.09
2023-01-19T06:10:12.783Z,88.41
2023-01-19T06:12:41.881Z,88.27
2023-01-19T06:15:11.173Z,88.64
2023-01-19T06:17:40.999Z,88.59
2023-01-19T06:20:10.832Z,88.23
2023-01-19T06:22:39.403Z,89.13
2023-01-19T06:25:08.439Z,88.58
2023-01-19T06:27:37.000Z,87.66
2023-01-19T06:30:06.477Z,88.28
2023-01-19T06:32:35.018Z,88.25
2023-01-19T06:35:05.297Z,88.30
2023-01-19T06:37:33.736Z,88.63
2023-01-19T06:40:02.237Z,88.44
2023-01-19T06:42:30.908Z,88.20
2023-01-19T06:44:59.380Z,88.23
2023-01-19T06:47:27.878Z,87.79
2023-01-19T06:49:56.594Z,88.54
2023-01-19T06:52:26.914Z,88.02
2023-01-19T06:54:55.561Z,88.15
2023-01-19T06:57:25.883Z,87.15
2023-01-19T06:59:54.408Z,87.65
2023-01-19T07:02:26.639Z,87.31
2023-01-19T07:04:56.700Z,87.13
2023-01-19T07:07:27.188Z,87.61
2023-01-19T07:09:55.743Z,87.41
2023-01-19T07:12:24.211Z,86.77
2023-01-19T07:14:53.094Z,85.94
2023-01-19T07:17:21.638Z,86.84
2023-01-19T07:19:51.885Z,87.21
2023-01-19T07:22:20.936Z,86.30
2023-01-19T07:24:50.785Z,87.17
2023-01-19T07:27:19.288Z,88.33
2023-01-19T07:29:47.894Z,87.63
2023-01-19T07:32:16.493Z,88.75
2023-01-19T07:34:45.219Z,87.72
2023-01-19T07:37:13.853Z,87.99
2023-01-19T07:39:43.279Z,87.24
2023-01-19T07:42:13.458Z,87.25
2023-01-19T07:44:42.279Z,86.62
2023-01-19T07:47:15.640Z,85.97
2023-01-19T07:49:44.097Z,87.08
2023-01-19T07:52:12.678Z,87.05
2023-01-19T07:54:41.526Z,87.00
2023-01-19T07:57:10.118Z,86.87
2023-01-19T07:59:39.997Z,87.35
2023-01-19T08:02:11.377Z,88.36
2023-01-19T08:04:40.311Z,88.27
2023-01-19T08:07:09.434Z,87.23
2023-01-19T08:09:37.896Z,87.59
2023-01-19T08:12:07.245Z,87.02
2023-01-19T08:14:35.787Z,87.14
2023-01-19T08:17:05.707Z,87.11
2023-01-19T08:19:34.437Z,87.39
2023-01-19T08:22:03.036Z,86.54
2023-01-19T08:24:31.551Z,86.06
2023-01-19T08:27:01.078Z,86.71
2023-01-19T08:29:30.804Z,86.02
2023-01-19T08:32:01.139Z,84.71
2023-01-19T08:34:31.930Z,85.57
2023-01-19T08:37:00.813Z,85.53
2023-01-19T08:39:29.373Z,84.68
2023-01-19T08:41:59.184Z,85.33
2023-01-19T08:44:28.235Z,85.74
2023-01-19T08:46:56.691Z,86.63
2023-01-19T08:49:25.366Z,84.93
2023-01-19T08:51:55.532Z,86.27
2023-01-19T08:54:24.308Z,85.21
2023-01-19T08:56:52.717Z,84.86
2023-01-19T08:59:21.161Z,84.33
2023-01-19T09:01:49.834Z,82.92
2023-01-19T09:04:18.393Z,83.38
2023-01-19T09:06:46.990Z,83.33
2023-01-19T09:09:16.887Z,83.80
2023-01-19T09:11:48.314Z,82.55
2023-01-19T09:14:16.791Z,82.70
2023-01-19T09:16:45.369Z,82.08
2023-01-19T09:19:14.117Z,81.70
2023-01-19T09:21:42.602Z,80.09
2023-01-19T09:24:11.111Z,80.60
2023-01-19T09:26:41.082Z,81.64
2023-01-19T09:29:09.601Z,80.52
2023-01-19T09:31:40.160Z,80.62
2023-01-19T09:34:08.770Z,81.42
2023-01-19T09:36:39.481Z,79.67
2023-01-19T09:39:08.214Z,78.26
2023-01-19T09:41:39.663Z,78.03
2023-01-19T09:44:18.599Z,78.07
2023-01-19T09:46:47.310Z,77.59
2023-01-19T09:49:18.590Z,78.41
2023-01-19T09:51:49.848Z,75.73
2023-01-19T09:54:20.963Z,76.70
2023-01-19T09:56:52.679Z,75.58
2023-01-19T09:59:25.664Z,76.12
2023-01-19T10:02:20.352Z,75.86
2023-01-19T10:04:59.792Z,76.11
2023-01-19T10:07:48.823Z,76.70
2023-01-19T10:10:20.774Z,75.50
2023-01-19T10:13:12.094Z,75.19
2023-01-19T10:15:52.790Z,74.45
2023-01-19T10:18:25.615Z,76.00
2023-01-19T10:21:00.921Z,73.49
2023-01-19T10:23:39.328Z,72.54
2023-01-19T10:26:15.443Z,73.24
2023-01-19T10:28:46.501Z,74.75
2023-01-19T10:31:19.196Z,73.13
2023-01-19T10:33:47.859Z,72.65
2023-01-19T10:36:21.402Z,73.67
2023-01-19T10:38:50.894Z,72.45
2023-01-19T10:41:24.171Z,73.72
2023-01-19T10:44:00.873Z,72.96
2023-01-19T10:46:38.462Z,73.16
2023-01-19T10:49:07.841Z,72.91
2023-01-19T10:51:48.413Z,73.12
2023-01-19T10:54:17.473Z,73.13
2023-01-19T10:56:53.353Z,74.06
2023-01-19T10:59:34.744Z,72.29
2023-01-19T11:02:26.558Z,71.87
2023-01-19T11:04:57.529Z,71.91
2023-01-19T11:07:30.332Z,73.08
2023-01-19T11:10:22.559Z,72.09
2023-01-19T11:13:02.366Z,70.49
2023-01-19T11:15:34.740Z,70.75
2023-01-19T11:18:06.690Z,69.45
2023-01-19T11:20:48.993Z,67.73
2023-01-19T11:23:25.716Z,70.90
2023-01-19T11:25:56.699Z,69.41
2023-01-19T11:28:29.660Z,70.53
2023-01-19T11:31:00.832Z,70.32
2023-01-19T11:33:37.703Z,69.13
2023-01-19T11:36:08.256Z,68.93
2023-01-19T11:38:44.132Z,71.50
2023-01-19T11:41:20.531Z,70.57
2023-01-19T11:46:35.068Z,71.09
2023-01-19T11:49:07.278Z,70.41
2023-01-19T11:51:47.553Z,71.68
2023-01-19T11:54:23.600Z,71.31
2023-01-19T11:56:55.409Z,72.82
2023-01-19T11:59:25.080Z,72.42
2023-01-19T12:01:58.550Z,73.13
2023-01-19T12:04:31.389Z,72.30
2023-01-19T12:07:06.842Z,72.61
2023-01-19T12:09:42.585Z,71.02
2023-01-19T12:12:22.218Z,71.38
2023-01-19T12:14:56.893Z,71.00
2023-01-19T12:17:28.456Z,71.57
2023-01-19T12:20:04.771Z,70.59
2023-01-19T12:22:40.405Z,71.43
2023-01-19T12:25:19.624Z,70.95
2023-01-19T12:27:50.399Z,70.28
2023-01-19T12:30:21.965Z,73.19
2023-01-19T12:32:52.171Z,71.16
2023-01-19T12:35:55.055Z,70.63
2023-01-19T12:38:33.324Z,70.54
2023-01-19T12:41:23.361Z,72.83
2023-01-19T12:44:27.596Z,72.60
2023-01-19T12:47:03.381Z,73.29
2023-01-19T12:49:36.431Z,70.79
2023-01-19T12:52:28.077Z,70.72
2023-01-19T12:55:01.729Z,72.45
2023-01-19T12:57:34.795Z,71.64
2023-01-19T13:00:07.226Z,73.27
2023-01-19T13:02:47.310Z,71.51
2023-01-19T13:05:25.395Z,71.84
2023-01-19T13:08:23.153Z,73.77
2023-01-19T13:11:19.516Z,72.48
2023-01-19T13:14:29.594Z,72.72
2023-01-19T13:17:05.714Z,73.00
2023-01-19T13:19:44.881Z,71.61
2023-01-19T13:23:02.612Z,73.15
2023-01-19T13:25:36.486Z,73.61
2023-01-19T13:28:11.921Z,72.44
2023-01-19T13:30:52.876Z,73.28
2023-01-19T13:33:24.472Z,73.28
2023-01-19T13:35:55.321Z,71.56
2023-01-19T13:38:25.493Z,71.00
2023-01-19T13:40:57.608Z,72.27
2023-01-19T13:43:31.201Z,72.04
2023-01-19T13:46:00.969Z,72.28
2023-01-19T13:48:29.718Z,72.45
2023-01-19T13:51:17.824Z,72.25
2023-01-19T13:53:54.739Z,73.40
2023-01-19T13:56:25.987Z,72.99
2023-01-19T13:59:10.238Z,74.12
2023-01-19T14:01:40.398Z,73.87
2023-01-19T14:04:23.812Z,73.92
2023-01-19T14:06:55.596Z,73.25
2023-01-19T14:09:24.313Z,74.56
2023-01-19T14:12:15.765Z,75.47
2023-01-19T14:14:48.299Z,74.27
2023-01-19T14:17:25.525Z,75.79
2023-01-19T14:19:55.355Z,75.24
2023-01-19T14:22:39.618Z,72.72
2023-01-19T14:25:29.041Z,73.37
2023-01-19T14:28:29.259Z,74.72
2023-01-19T14:30:59.317Z,73.87
2023-01-19T14:33:36.120Z,74.86
2023-01-19T14:36:30.237Z,74.21
2023-01-19T14:39:00.474Z,75.43
2023-01-19T14:41:31.295Z,74.35
2023-01-19T14:44:01.682Z,75.47
2023-01-19T14:46:30.501Z,73.64
2023-01-19T14:49:03.314Z,74.97
2023-01-19T14:51:32.998Z,75.71
2023-01-19T14:54:03.492Z,74.71
2023-01-19T14:56:34.059Z,76.61
2023-01-19T14:59:09.409Z,76.60
2023-01-19T15:01:38.524Z,76.54
2023-01-19T15:04:07.170Z,76.81
2023-01-19T15:06:41.233Z,76.83
2023-01-19T15:09:12.846Z,74.85
2023-01-19T15:11:42.376Z,77.26
2023-01-19T15:14:14.660Z,76.87
2023-01-19T15:16:43.700Z,75.73
2023-01-19T15:19:13.861Z,75.56
2023-01-19T15:21:42.979Z,75.23
2023-01-19T15:24:12.632Z,76.17
2023-01-19T15:26:43.202Z,76.33
2023-01-19T15:29:23.264Z,77.38
2023-01-19T15:31:53.799Z,76.48
2023-01-19T15:34:22.489Z,77.30
2023-01-19T15:36:51.063Z,76.93
2023-01-19T15:39:19.670Z,76.34
2023-01-19T15:41:48.308Z,78.25
2023-01-19T15:44:16.934Z,77.90
2023-01-19T15:46:46.747Z,78.17
2023-01-19T15:49:15.209Z,78.33
2023-01-19T15:51:43.720Z,78.40
2023-01-19T15:54:14.691Z,78.59
2023-01-19T15:56:43.536Z,78.62
2023-01-19T15:59:12.022Z,79.57
2023-01-19T16:01:41.265Z,78.11
2023-01-19T16:04:12.084Z,78.97
2023-01-19T16:06:40.719Z,78.95
2023-01-19T16:09:09.219Z,80.23
2023-01-19T16:11:38.677Z,79.45
2023-01-19T16:14:07.270Z,81.02
2023-01-19T16:16:35.928Z,81.20
2023-01-19T16:19:05.027Z,80.21
2023-01-19T16:21:35.198Z,79.70
2023-01-19T16:24:03.787Z,81.00
2023-01-19T16:26:34.896Z,81.01
2023-01-19T16:29:08.548Z,80.41
2023-01-19T16:31:37.563Z,80.89
2023-01-19T16:34:06.269Z,81.02
2023-01-19T16:36:38.554Z,80.45
2023-01-19T16:39:09.321Z,80.46
2023-01-19T16:41:37.963Z,81.15
2023-01-19T16:44:11.631Z,81.22
2023-01-19T16:46:42.463Z,79.68
2023-01-19T16:49:14.085Z,79.40
2023-01-19T16:51:44.507Z,81.09
2023-01-19T16:54:14.622Z,80.29
2023-01-19T16:56:43.627Z,80.36
2023-01-19T16:59:17.356Z,80.31
2023-01-19T17:01:47.000Z,81.36
2023-01-19T17:04:15.665Z,81.70
2023-01-19T17:06:46.499Z,82.61
2023-01-19T17:09:15.463Z,81.78
2023-01-19T17:11:44.743Z,82.05
2023-01-19T17:14:15.072Z,81.81
2023-01-19T17:16:43.644Z,82.37
2023-01-19T17:19:16.467Z,82.57
2023-01-19T17:21:48.612Z,81.58
2023-01-19T17:24:17.566Z,81.52
2023-01-19T17:26:48.566Z,81.07
2023-01-19T17:29:17.594Z,81.23
2023-01-19T17:31:46.809Z,82.54
2023-01-19T17:34:15.408Z,81.49
2023-01-19T17:36:44.253Z,82.01
2023-01-19T17:39:16.752Z,81.61
2023-01-19T17:41:45.403Z,81.54
2023-01-19T17:44:13.938Z,81.94
2023-01-19T17:46:42.506Z,81.64
2023-01-19T17:49:12.302Z,82.25
2023-01-19T17:51:40.752Z,82.73
2023-01-19T17:54:10.751Z,83.13
2023-01-19T17:56:41.275Z,82.99
2023-01-19T17:59:12.022Z,83.10
2023-01-19T18:01:40.771Z,83.18
2023-01-19T18:04:10.083Z,82.96
2023-01-19T18:06:39.217Z,83.03
2023-01-19T18:09:11.134Z,83.31
2023-01-19T18:11:42.768Z,83.21
2023-01-19T18:14:11.608Z,83.71
2023-01-19T18:16:40.636Z,83.45
2023-01-19T18:19:09.238Z,83.80
2023-01-19T18:21:38.180Z,84.01
2023-01-19T18:24:07.633Z,83.81
2023-01-19T18:26:37.598Z,83.88
2023-01-19T18:29:07.676Z,83.90
2023-01-19T18:31:36.352Z,84.56
2023-01-19T18:34:05.058Z,84.16
2023-01-19T18:36:34.221Z,84.14
2023-01-19T18:39:03.232Z,84.80
2023-01-19T18:41:32.033Z,84.82
2023-01-19T18:44:01.099Z,85.15
2023-01-19T18:46:31.182Z,84.65
2023-01-19T18:48:59.737Z,84.09
2023-01-19T18:51:29.150Z,84.95
2023-01-19T18:53:58.155Z,84.28
2023-01-19T18:56:27.404Z,85.58
2023-01-19T18:58:55.928Z,86.08
2023-01-19T19:01:26.654Z,86.53
2023-01-19T19:03:57.663Z,87.50
2023-01-19T19:06:27.499Z,87.52
2023-01-19T19:08:59.629Z,86.59
2023-01-19T19:11:31.301Z,87.07
2023-01-19T19:14:01.537Z,86.78
2023-01-19T19:16:32.201Z,86.94
2023-01-19T19:19:04.029Z,86.69
2023-01-19T19:21:32.570Z,86.43
2023-01-19T19:24:01.273Z,86.87
2023-01-19T19:26:30.144Z,87.41
2023-01-19T19:28:58.686Z,86.66
2023-01-19T19:31:28.223Z,87.46
2023-01-19T19:33:57.721Z,86.32
2023-01-19T19:36:28.960Z,85.70
2023-01-19T19:38:59.630Z,85.96
2023-01-19T19:41:29.584Z,86.00
2023-01-19T19:43:58.249Z,85.59
2023-01-19T19:46:27.671Z,85.90
2023-01-19T19:48:56.308Z,86.46
2023-01-19T19:51:27.904Z,86.04
2023-01-19T19:53:58.643Z,86.13
2023-01-19T19:56:29.862Z,86.12
2023-01-19T19:59:00.055Z,86.24
2023-01-19T20:01:33.189Z,85.31
2023-01-19T20:04:07.147Z,85.18
2023-01-19T20:06:39.868Z,86.77
2023-01-19T20:09:12.580Z,85.97
2023-01-19T20:11:42.712Z,86.46
2023-01-19T20:14:13.287Z,85.54
2023-01-19T20:16:41.931Z,84.66
2023-01-19T20:19:11.391Z,86.37
2023-01-19T20:21:42.669Z,85.41
2023-01-19T20:24:14.411Z,85.60
2023-01-19T20:26:45.810Z,86.33
2023-01-19T20:29:14.594Z,85.83
2023-01-19T20:31:45.235Z,86.30
2023-01-19T20:34:15.999Z,86.67
2023-01-19T20:36:49.616Z,86.73
2023-01-19T20:39:19.703Z,86.31
2023-01-19T20:41:51.213Z,85.36
2023-01-19T20:44:22.241Z,86.73
2023-01-19T20:46:51.353Z,85.85
2023-01-19T20:49:20.167Z,86.03
2023-01-19T20:51:51.929Z,85.77
2023-01-19T20:54:22.924Z,85.55
2023-01-19T20:56:51.573Z,86.38
2023-01-19T20:59:21.794Z,86.68
2023-01-19T21:01:50.983Z,85.62
2023-01-19T21:04:20.055Z,86.24
2023-01-19T21:06:49.962Z,86.01
2023-01-19T21:09:18.976Z,85.41
2023-01-19T21:11:47.593Z,85.39
2023-01-19T21:14:16.083Z,84.86
2023-01-19T21:16:44.629Z,84.99
2023-01-19T21:19:13.224Z,84.63
2023-01-19T21:21:41.704Z,85.01
2023-01-19T21:24:12.043Z,84.98
2023-01-19T21:26:41.753Z,85.41
2023-01-19T21:29:13.176Z,84.99
2023-01-19T21:31:41.846Z,85.49
2023-01-19T21:34:10.599Z,85.07
2023-01-19T21:36:39.123Z,84.82
2023-01-19T21:39:08.193Z,84.70
2023-01-19T21:41:39.885Z,84.94
2023-01-19T21:44:08.388Z,85.03
2023-01-19T21:46:36.887Z,85.30
2023-01-19T21:49:06.859Z,85.47
2023-01-19T21:51:37.579Z,86.46
2023-01-19T21:54:07.552Z,85.74
2023-01-19T21:56:38.603Z,85.99
2023-01-19T21:59:07.475Z,85.71
2023-01-19T22:01:36.546Z,85.70
2023-01-19T22:04:05.560Z,85.73
2023-01-19T22:06:34.539Z,85.39
2023-01-19T22:09:03.136Z,85.36
2023-01-19T22:11:32.145Z,85.28
2023-01-19T22:14:02.097Z,86.03
2023-01-19T22:16:31.242Z,85.85
2023-01-19T22:19:01.894Z,86.10
2023-01-19T22:21:31.871Z,85.84
2023-01-19T22:24:01.871Z,85.20
2023-01-19T22:26:33.985Z,86.11
2023-01-19T22:29:06.759Z,86.28
2023-01-19T22:31:35.349Z,85.57
2023-01-19T22:34:04.033Z,86.37
2023-01-19T22:36:33.932Z,86.07
2023-01-19T22:39:04.903Z,85.48
2023-01-19T22:41:36.502Z,85.33
2023-01-19T22:44:08.082Z,85.39
2023-01-19T22:46:37.866Z,85.16
2023-01-19T22:49:08.453Z,85.13
2023-01-19T22:51:37.280Z,86.12
2023-01-19T22:54:06.095Z,86.04
2023-01-19T22:56:36.114Z,86.06
2023-01-19T22:59:06.918Z,86.34
2023-01-19T23:01:37.842Z,85.97
2023-01-19T23:04:07.464Z,87.67
2023-01-19T23:06:37.091Z,86.27
2023-01-19T23:09:07.749Z,86.04
2023-01-19T23:11:38.030Z,87.96
2023-01-19T23:14:10.171Z,87.95
2023-01-19T23:16:38.657Z,87.51
2023-01-19T23:19:07.552Z,87.12
2023-01-19T23:21:36.911Z,87.73
2023-01-19T23:24:06.141Z,87.54
2023-01-19T23:26:38.020Z,88.30
2023-01-19T23:29:12.058Z,86.81
2023-01-19T23:31:43.769Z,86.94
2023-01-19T23:34:13.139Z,87.64
2023-01-19T23:36:42.622Z,88.19
2023-01-19T23:39:14.637Z,87.60
2023-01-19T23:41:43.330Z,88.30
2023-01-19T23:44:13.325Z,87.07
2023-01-19T23:46:43.845Z,87.58
2023-01-19T23:49:12.437Z,88.52
2023-01-19T23:51:41.776Z,88.10
2023-01-19T23:54:10.266Z,87.42
2023-01-19T23:56:39.837Z,88.44
2023-01-19T23:59:10.344Z,88.96
